Data for 03/26/2013

Time Sea-Level Adjusted Pressure Absolute Pressure Temperature Relative Humidity Dew Point   
(mb) (inHg) (mb) (inHg) (C) (F) (%) (C) (F)
00:05 1016 30 845 24.95 -1 30.2 34 -15.1 4.8
00:10 1016 30 845 24.95 -1.1 30 35 -14.8 5.4
00:15 1016 30 845 24.95 -1.2 29.9 35 -14.7 5.6
00:20 1016 30 845 24.95 -1.1 29.9 34 -15.2 4.7
00:25 1016 30 845 24.95 -1.1 30 35 -14.9 5.2
00:30 1016 30 845 24.95 -1 30.3 33 -15.3 4.5
00:35 1016 30 845 24.95 -0.8 30.5 33 -15.1 4.9
00:40 1016 30 845 24.95 -0.9 30.5 36 -14.3 6.3
00:45 1016 30 845 24.95 -0.8 30.6 33 -15.3 4.5
00:50 1016 30 845 24.95 -0.7 30.8 35 -14.5 5.9
00:55 1016 30 845 24.95 -0.7 30.8 33 -15.2 4.6
01:00 1016 30 845 24.95 -0.6 30.9 32 -15.2 4.6
01:05 1016 30 845 24.95 -0.7 30.8 32 -15.4 4.2
01:10 1016 30 845 24.95 -0.8 30.6 33 -15.2 4.6
01:15 1016 30 845 24.95 -0.9 30.4 33 -15.1 4.8
01:20 1016 30 845 24.95 -0.9 30.3 34 -15.1 4.8
01:25 1016 30 845 24.95 -1 30.3 35 -14.7 5.6
01:30 1016 30 845 24.95 -1 30.2 35 -14.6 5.6
01:35 1016 30 845 24.95 -1.1 30.1 36 -14.3 6.2
01:40 1016 30 845 24.95 -1.1 30 34 -15.2 4.7
01:45 1016 30 845 24.95 -1 30.1 35 -14.6 5.7
01:50 1016 30 845 24.95 -1 30.2 34 -15.2 4.7
01:55 1016 30 845 24.95 -0.9 30.3 33 -15.3 4.4
02:00 1016 30 845 24.95 -0.9 30.4 32 -15.6 4
02:05 1016 30 845 24.95 -0.8 30.5 32 -15.7 3.8
02:10 1016 30 845 24.95 -0.7 30.7 31 -15.8 3.5
02:15 1016 30 845 24.95 -0.7 30.8 31 -15.9 3.3
02:20 1016 30 845 24.95 -0.6 30.9 32 -15.6 4
02:25 1016 30 845 24.95 -0.8 30.6 36 -14.2 6.5
02:30 1016 30 845 24.95 -1 30.2 38 -13.6 7.5
02:35 1016 30 845 24.95 -1.1 30.1 36 -14.2 6.4
02:40 1016 30 845 24.95 -1 30.2 35 -14.5 6
02:45 1016 30 845 24.95 -0.9 30.5 34 -14.9 5.2
02:50 1016 30 845 24.95 -0.7 30.8 33 -15.1 4.8
02:55 1016 30 845 24.95 -0.6 30.9 34 -14.8 5.4
03:00 1016 30 845 24.95 -0.7 30.7 35 -14.4 6.1
03:05 1016 30 845 24.95 -0.9 30.5 37 -14 6.9
03:10 1016 30 845 24.95 -0.9 30.3 37 -13.8 7.1
03:15 1016 30 845 24.95 -1 30.2 36 -14.1 6.5
03:20 1016 30 845 24.95 -0.8 30.6 35 -14.5 5.8
03:25 1016 30 845 24.95 -0.7 30.8 35 -14.3 6.2
03:30 1016 30 845 24.95 -0.6 31 33 -15 5
03:35 1016 30 845 24.95 -0.5 31.1 31 -15.7 3.8
03:40 1016 30 845 24.95 -0.4 31.3 32 -15.3 4.4
03:45 1016 30 845 24.95 -0.5 31.2 32 -15.1 4.8
03:50 1016 30 845 24.95 -0.5 31.2 33 -14.9 5.1
03:55 1016 30 845 24.95 -0.5 31.1 34 -14.7 5.6
04:00 1016 30 845 24.95 -0.4 31.2 36 -13.7 7.4
04:05 1016 30 845 24.95 -0.5 31.1 32 -15.3 4.5
04:10 1016 30 845 24.95 -0.4 31.4 33 -14.7 5.5
04:15 1016 30 845 24.95 -0.5 31.2 35 -14.1 6.5
04:20 1016 30 845 24.95 -0.6 30.9 35 -14.1 6.6
04:25 1016 30 845 24.95 -0.6 30.9 32 -15.2 4.6
04:30 1016 30 845 24.95 -0.4 31.3 34 -14.6 5.8
04:35 1016 30 845 24.95 -0.5 31.2 37 -13.4 7.9
04:40 1016 30 845 24.95 -0.6 31 36 -13.9 6.9
04:45 1016 30 845 24.95 -0.6 30.9 38 -13.4 7.9
04:50 1016 30 845 24.95 -0.6 30.9 35 -14.1 6.6
04:55 1016 30 845 24.95 -0.6 31 38 -13.1 8.4
05:00 1016 30 845 24.95 -0.6 30.9 38 -13.3 8.1
05:05 1016 30 845 24.95 -0.5 31.1 36 -13.7 7.3
05:10 1016 30 845 24.95 -0.4 31.3 39 -12.8 8.9
05:15 1016 30 845 24.95 -0.7 30.8 45 -11.3 11.7
05:20 1016 30 845 24.95 -1.3 29.7 49 -10.6 13
05:25 1016 30 845 24.95 -1.4 29.4 52 -10.2 13.7
05:30 1016 30 845 24.95 -1.7 29 56 -9.4 15
05:35 1016 30 845 24.95 -1.9 28.7 58 -9.2 15.5
05:40 1016 30 845 24.95 -2 28.5 58 -9.1 15.6
05:45 1016 30 845 24.95 -2.1 28.2 58 -9.2 15.4
05:50 1016 30 845 24.95 -2.1 28.2 57 -9.6 14.7
05:55 1016 30 845 24.95 -1.9 28.5 56 -9.5 14.9
06:00 1016 30 845 24.95 -2 28.4 56 -9.7 14.5
06:05 1016 30 845 24.95 -2.1 28.1 56 -9.7 14.6
06:10 1016 30 845 24.95 -2.2 28 57 -9.6 14.8
06:15 1016 30 845 24.95 -2.3 27.9 53 -10.5 13
06:20 1016 30 845 24.95 -2.2 28 52 -10.7 12.8
06:25 1016 30 845 24.95 -2.1 28.1 51 -11 12.3
06:30 1016 30 845 24.95 -2.1 28.2 53 -10.4 13.3
06:35 1016 30 845 24.95 -2.2 28 51 -11.1 12
06:40 1016 30 845 24.95 -2.2 28.1 50 -11.1 12
06:45 1016 30 845 24.95 -2 28.4 48 -11.7 10.9
06:50 1016 30 845 24.95 -1.5 29.3 45 -12 10.4
06:55 1016 30 845 24.95 -0.9 30.4 42 -12.3 9.9
07:00 1016 30 845 24.95 -0.2 31.7 41 -11.9 10.6
07:05 1016 30 845 24.95 -0.2 31.7 44 -10.9 12.3
07:10 1016 30 845 24.95 -0.7 30.7 48 -10.3 13.4
07:15 1016 30 845 24.95 -1 30.2 48 -10.5 13
07:20 1016 30 845 24.95 -1.2 29.8 49 -10.6 12.9
07:25 1016 30 845 24.95 -1.2 29.8 49 -10.6 12.9
07:30 1016 30 845 24.95 -1.1 30.1 48 -10.6 12.9
07:35 1016 30 845 24.95 -0.7 30.8 46 -10.9 12.3
07:40 1016 30 845 24.95 -0.6 30.8 46 -10.8 12.6
07:45 1016 30 845 24.95 -0.2 31.6 45 -10.7 12.8
07:50 1016 30 845 24.95 0.4 32.7 43 -10.8 12.5
07:55 1016 30 845 24.95 1 33.8 42 -10.6 13
08:00 1016 30 845 24.95 0.9 33.6 42 -10.6 12.9
08:05 1016 30 845 24.95 1 33.8 40 -11 12.1
08:10 1016 30 845 24.95 1.1 34 41 -10.8 12.5
08:15 1016 30 845 24.95 1.5 34.6 38 -11.3 11.6
08:20 1016 30 845 24.95 1.6 34.9 39 -11 12.2
08:25 1016 30 845 24.95 1.8 35.2 38 -11 12.3
08:30 1016 30 845 24.95 2.3 36.2 37 -10.8 12.5
08:35 1016 30 845 24.95 3.1 37.6 35 -10.9 12.4
08:40 1016 30 845 24.95 4 39.1 34 -10.7 12.8
08:45 1016 30 845 24.95 4.1 39.4 34 -10.4 13.3
08:50 1016 30 845 24.95 4.1 39.4 34 -10.5 13.2
08:55 1016 30 845 24.95 4.1 39.4 35 -10.1 13.9
09:00 1016 30 845 24.95 3.7 38.6 36 -10 14
09:05 1016 30 845 24.95 3.9 39.1 35 -10.1 13.7
09:10 1016 30 845 24.95 4.3 39.7 34 -10.1 13.8
09:15 1016 30 845 24.95 4.7 40.4 33 -10.2 13.6
09:20 1016 30 845 24.95 4.9 40.9 33 -10.1 13.9
09:25 1016 30 845 24.95 4.2 39.6 34 -10.2 13.7
09:30 1016 30 845 24.95 4.7 40.4 33 -10.3 13.4
09:35 1016 30 845 24.95 5.2 41.3 34 -9.6 14.7
09:40 1016 30 845 24.95 5.1 41.2 33 -9.8 14.3
09:45 1016 30 845 24.95 4.8 40.6 35 -9.3 15.3
09:50 1016 30 845 24.95 5 41 33 -9.9 14.2
09:55 1016 30 845 24.95 6 42.9 32 -9.3 15.2
10:00 1016 30 845 24.95 6.4 43.5 32 -9.1 15.6
10:05 1016 30 845 24.95 5.7 42.3 35 -8.5 16.8
10:10 1016 30 845 24.95 5.3 41.6 34 -9.4 15.1
10:15 1016 30 845 24.95 6 42.9 33 -9.2 15.5
10:20 1016 30 845 24.95 6.6 44 33 -8.6 16.4
10:25 1016 30 845 24.95 6.9 44.5 32 -8.8 16.2
10:30 1016 30 845 24.95 7 44.6 32 -8.6 16.5
10:35 1016 30 845 24.95 7 44.7 33 -8 17.6
10:40 1016 30 845 24.95 6.2 43.2 35 -8.2 17.2
10:45 1016 30 845 24.95 5.9 42.5 36 -8.2 17.2
10:50 1016 30 845 24.95 5.6 42 37 -7.9 17.7
10:55 1016 30 845 24.95 6.2 43.2 35 -8.1 17.4
11:00 1016 30 845 24.95 5.7 42.3 37 -8 17.6
11:05 1016 30 845 24.95 6 42.7 34 -8.7 16.3
11:10 1016 30 845 24.95 6.9 44.4 33 -8.4 16.9
11:15 1016 30 845 24.95 6.8 44.3 33 -8.3 17.1
11:20 1016 30 845 24.95 7.1 44.7 33 -8.3 17.1
11:25 1016 30 845 24.95 6.8 44.2 31 -9.4 15.1
11:30 1016 30 845 24.95 7.7 45.9 28 -9.6 14.8
11:35 1016 30 845 24.95 7.5 45.5 28 -9.7 14.6
11:40 1016 30 845 24.95 7.8 46 27 -10.1 13.8
11:45 1016 30 845 24.95 8.1 46.5 27 -9.8 14.3
11:50 1016 30 845 24.95 7.9 46.3 28 -9.7 14.5
11:55 1016 30 845 24.95 8.4 47.1 29 -8.7 16.4
12:00 1016 30 845 24.95 7.6 45.7 29 -9.5 14.9
12:05 1016 30 845 24.95 7.8 46.1 27 -9.9 14.2
12:10 1016 30 845 24.95 8.2 46.8 27 -9.8 14.3
12:15 1016 30 845 24.95 8.8 47.8 26 -9.5 14.9
12:20 1016 30 845 24.95 8.8 47.8 26 -9.5 14.9
12:25 1016 30 845 24.95 8.9 48 27 -9.1 15.6
12:30 1016 30 845 24.95 8.8 47.8 26 -9.9 14.2
12:35 1016 30 845 24.95 8.8 47.8 27 -9.3 15.2
12:40 1016 30 845 24.95 9.1 48.4 25 -9.6 14.6
12:45 1016 30 845 24.95 9.1 48.3 26 -9.5 14.9
12:50 1015 29.97 845 24.95 8.8 47.8 28 -8.9 16
12:55 1015 29.97 845 24.95 9 48.3 27 -9.1 15.7
13:00 1015 29.97 845 24.95 7.4 45.4 29 -9.3 15.3
13:05 1015 29.97 845 24.95 7.3 45.1 29 -9.8 14.4
13:10 1015 29.97 845 24.95 8.2 46.7 28 -9.4 15
13:15 1015 29.97 845 24.95 8.6 47.4 27 -9.5 14.8
13:20 1015 29.97 844 24.92 9.3 48.8 26 -9.2 15.4
13:25 1015 29.97 844 24.92 10 49.9 25 -9.4 15
13:30 1015 29.97 844 24.92 10.2 50.4 25 -9 15.7
13:35 1015 29.97 844 24.92 9.8 49.7 26 -9 15.8
13:40 1015 29.97 844 24.92 9.1 48.4 26 -9.4 15.1
13:45 1015 29.97 844 24.92 8.7 47.7 27 -9.3 15.3
13:50 1015 29.97 844 24.92 8.7 47.6 27 -9.5 14.9
13:55 1015 29.97 844 24.92 9.4 48.9 27 -8.7 16.3
14:00 1015 29.97 844 24.92 9.8 49.7 26 -8.8 16.1
14:05 1015 29.97 844 24.92 9.7 49.5 25 -9.4 15
14:10 1015 29.97 844 24.92 9.8 49.6 26 -8.7 16.3
14:15 1015 29.97 844 24.92 9.1 48.4 26 -9.6 14.7
14:20 1015 29.97 844 24.92 10.1 50.2 24 -9.4 15.1
14:25 1015 29.97 844 24.92 10.1 50.2 25 -8.8 16.1
14:30 1015 29.97 844 24.92 9.7 49.4 25 -9.4 15
14:35 1015 29.97 844 24.92 9.8 49.6 26 -8.9 16
14:40 1015 29.97 844 24.92 9.3 48.8 27 -8.9 15.9
14:45 1015 29.97 844 24.92 9.2 48.5 26 -9.4 15.1
14:50 1015 29.97 844 24.92 9.5 49.1 25 -9.3 15.2
14:55 1015 29.97 844 24.92 10.5 50.9 23 -9.6 14.8
15:00 1015 29.97 844 24.92 10.8 51.4 24 -9 15.8
15:05 1015 29.97 844 24.92 9.9 49.8 26 -8.8 16.2
15:10 1015 29.97 844 24.92 10.1 50.2 24 -9.3 15.2
15:15 1015 29.97 844 24.92 10.4 50.8 24 -9.3 15.3
15:20 1015 29.97 844 24.92 10.5 51 24 -9.2 15.5
15:25 1015 29.97 844 24.92 10.2 50.3 25 -9.1 15.6
15:30 1015 29.97 844 24.92 10.1 50.1 24 -9.5 14.9
15:35 1015 29.97 844 24.92 10.3 50.5 24 -9.4 15.1
15:40 1015 29.97 844 24.92 10.7 51.2 23 -9.4 15.1
15:45 1015 29.97 844 24.92 10.6 51.1 24 -9.3 15.2
15:50 1015 29.97 844 24.92 10.7 51.2 23 -9.5 15
15:55 1015 29.97 844 24.92 10.9 51.7 23 -9.2 15.5
16:00 1015 29.97 844 24.92 10.9 51.6 23 -9.6 14.8
16:05 1015 29.97 844 24.92 9.4 48.8 26 -9.4 15
16:10 1015 29.97 844 24.92 9.7 49.4 24 -9.8 14.3
16:15 1015 29.97 844 24.92 10.6 51.2 23 -9.8 14.4
16:20 1015 29.97 844 24.92 10.8 51.4 23 -9.8 14.4
16:25 1015 29.97 844 24.92 10.5 50.9 23 -9.6 14.7
16:30 1015 29.97 844 24.92 10.6 51 23 -9.9 14.2
16:35 1015 29.97 844 24.92 10.6 51 22 -10.1 13.8
16:40 1015 29.97 844 24.92 10 50 24 -9.7 14.5
16:45 1015 29.97 844 24.92 10.4 50.7 23 -9.9 14.2
16:50 1015 29.97 844 24.92 10.5 51 23 -9.7 14.6
16:55 1015 29.97 844 24.92 10.4 50.6 23 -9.7 14.5
17:00 1015 29.97 844 24.92 10.6 51 23 -9.7 14.6
17:05 1015 29.97 844 24.92 10.4 50.6 23 -9.8 14.3
17:10 1015 29.97 844 24.92 10.4 50.7 23 -9.8 14.4
17:15 1015 29.97 844 24.92 10.1 50.1 24 -9.4 15.1
17:20 1015 29.97 844 24.92 10.2 50.3 24 -9.6 14.7
17:25 1015 29.97 844 24.92 9.8 49.7 25 -9.4 15.1
17:30 1015 29.97 844 24.92 8.8 47.9 27 -9.4 15.2
17:35 1015 29.97 844 24.92 8.4 47.2 27 -9.5 15
17:40 1015 29.97 844 24.92 8.6 47.5 27 -9.6 14.8
17:45 1015 29.97 844 24.92 8.1 46.6 27 -9.8 14.3
17:50 1015 29.97 844 24.92 7.8 46 27 -10.1 13.9
17:55 1015 29.97 844 24.92 7.8 46 27 -10.1 13.9
18:00 1015 29.97 844 24.92 7.7 45.9 27 -10.1 13.9
18:05 1015 29.97 844 24.92 7.6 45.8 27 -10 14
18:10 1015 29.97 844 24.92 7.6 45.8 27 -10 14
18:15 1015 29.97 844 24.92 7.6 45.7 27 -10 14
18:20 1015 29.97 844 24.92 7.6 45.6 27 -10.1 13.9
18:25 1015 29.97 844 24.92 7.5 45.5 28 -10.1 13.9
18:30 1015 29.97 844 24.92 7.4 45.3 27 -10.3 13.5
18:35 1015 29.97 844 24.92 7.3 45.2 28 -10 14
18:40 1015 29.97 844 24.92 7.2 44.9 28 -10.2 13.7
18:45 1015 29.97 844 24.92 7.1 44.7 29 -10 14
18:50 1015 29.97 844 24.92 6.9 44.5 29 -10.1 13.8
18:55 1015 29.97 844 24.92 6.9 44.4 29 -10.1 13.8
19:00 1015 29.97 844 24.92 6.8 44.2 29 -10 13.9
19:05 1015 29.97 844 24.92 6.7 44 29 -10.2 13.6
19:10 1015 29.97 844 24.92 6.8 44.2 29 -9.9 14.1
19:15 1015 29.97 844 24.92 6.2 43.2 38 -6.9 19.5
19:20 1015 29.97 844 24.92 5.1 41.2 41 -7.1 19.2
19:25 1015 29.97 844 24.92 4.5 40.1 42 -7.2 19
19:30 1015 29.97 844 24.92 4.2 39.6 43 -7.2 19.1
19:35 1015 29.97 844 24.92 3.9 39 45 -6.9 19.6
19:40 1015 29.97 844 24.92 3.4 38.1 48 -6.6 20.1
19:45 1015 29.97 844 24.92 3 37.4 49 -6.7 20
19:50 1015 29.97 844 24.92 2.9 37.2 48 -6.9 19.5
19:55 1015 29.97 844 24.92 2.9 37.1 48 -7.2 19.1
20:00 1015 29.97 844 24.92 2.8 37 47 -7.4 18.7
20:05 1015 29.97 844 24.92 2.7 36.9 47 -7.5 18.5
20:10 1015 29.97 844 24.92 2.7 36.9 46 -7.7 18.1
20:15 1015 29.97 844 24.92 2.8 37 45 -7.9 17.8
20:20 1015 29.97 844 24.92 2.9 37.2 44 -8.1 17.4
20:25 1015 29.97 844 24.92 2.9 37.2 46 -7.5 18.5
20:30 1015 29.97 844 24.92 2.6 36.7 46 -7.8 18
20:35 1015 29.97 845 24.95 2.6 36.7 46 -7.8 18
20:40 1015 29.97 845 24.95 2.4 36.4 47 -7.8 18
20:45 1015 29.97 845 24.95 2.4 36.3 47 -7.8 18
20:50 1015 29.97 845 24.95 2.4 36.3 46 -8.1 17.5
20:55 1015 29.97 845 24.95 2.4 36.3 47 -7.9 17.8
21:00 1015 29.97 845 24.95 2.3 36.1 47 -7.8 18
21:05 1015 29.97 845 24.95 2.2 35.9 48 -7.8 18
21:10 1015 29.97 845 24.95 2 35.7 49 -7.7 18.2
21:15 1015 29.97 845 24.95 1.9 35.4 49 -7.7 18.1
21:20 1015 29.97 845 24.95 1.8 35.2 50 -7.4 18.6
21:25 1015 29.97 845 24.95 1.5 34.8 51 -7.5 18.4
21:30 1015 29.97 845 24.95 1.4 34.6 51 -7.7 18.2
21:35 1015 29.97 845 24.95 1.4 34.5 51 -7.6 18.3
21:40 1015 29.97 845 24.95 1.3 34.4 51 -7.7 18.2
21:45 1015 29.97 845 24.95 1.5 34.7 50 -7.8 18
21:50 1015 29.97 845 24.95 1.5 34.7 49 -8.1 17.4
21:55 1015 29.97 845 24.95 1.6 34.9 49 -7.9 17.8
22:00 1015 29.97 845 24.95 1.4 34.5 51 -7.8 18
22:05 1015 29.97 845 24.95 1.4 34.5 49 -8.1 17.4
22:10 1015 29.97 845 24.95 1.4 34.6 50 -7.9 17.8
22:15 1015 29.97 845 24.95 1.2 34.2 52 -7.7 18.2
22:20 1015 29.97 845 24.95 1.3 34.4 49 -8.2 17.3
22:25 1015 29.97 845 24.95 1.5 34.7 49 -8.1 17.4
22:30 1015 29.97 845 24.95 1.5 34.7 49 -8 17.5
22:35 1015 29.97 845 24.95 1.4 34.5 51 -7.7 18.2
22:40 1015 29.97 845 24.95 1.2 34.1 52 -7.7 18.1
22:45 1015 29.97 845 24.95 1.2 34.2 51 -7.9 17.8
22:50 1015 29.97 845 24.95 1.3 34.4 50 -7.9 17.7
22:55 1016 30 845 24.95 1.5 34.8 48 -8.3 17.1
23:00 1016 30 845 24.95 1.8 35.3 46 -8.5 16.6
23:05 1016 30 845 24.95 2 35.5 47 -8.3 17
23:10 1016 30 845 24.95 1.9 35.4 47 -8.4 16.9
23:15 1016 30 845 24.95 1.9 35.4 46 -8.5 16.7
23:20 1016 30 845 24.95 1.7 35.1 47 -8.5 16.7
23:25 1016 30 845 24.95 1.6 34.9 47 -8.6 16.5
23:30 1016 30 845 24.95 1.5 34.6 48 -8.4 16.9
23:35 1016 30 845 24.95 1.3 34.3 49 -8.3 17.1
23:40 1016 30 845 24.95 1.1 33.9 50 -8.3 17.1
23:45 1016 30 845 24.95 1 33.8 50 -8.3 17.1
23:50 1016 30 845 24.95 1 33.8 50 -8.3 17.1
23:55 1016 30 845 24.95 1 33.7 49 -8.5 16.7
24:00 1016 30 845 24.95 1 33.8 49 -8.5 16.6